Data for 07/22/2008

Time Sea-Level Adjusted Pressure Absolute Pressure Temperature Relative Humidity Dew Point   
(mb) (inHg) (mb) (inHg) (C) (F) (%) (C) (F)
00:05 1018 30.06 848 25.04 21 69.8 44 8.5 47.4
00:10 1018 30.06 848 25.04 20.9 69.6 45 8.7 47.7
00:15 1018 30.06 848 25.04 20.9 69.6 46 9.1 48.4
00:20 1018 30.06 848 25.04 20.9 69.6 45 8.5 47.4
00:25 1018 30.06 848 25.04 20.8 69.4 46 8.8 47.8
00:30 1018 30.06 848 25.04 20.6 69.1 47 9 48.2
00:35 1018 30.06 848 25.04 20.5 68.9 48 9.4 48.8
00:40 1018 30.06 848 25.04 20.5 68.8 48 9.3 48.7
00:45 1018 30.06 847 25.01 20.4 68.7 48 9.3 48.7
00:50 1018 30.06 847 25.01 20.3 68.6 49 9.5 49.1
00:55 1018 30.06 847 25.01 20 68 52 9.9 49.7
01:00 1018 30.06 847 25.01 19.5 67 52 9.5 49.2
01:05 1018 30.06 847 25.01 19.5 67 51 9.2 48.6
01:10 1018 30.06 847 25.01 19.5 67.1 51 9.2 48.5
01:15 1018 30.06 847 25.01 19.5 67.1 52 9.5 49.1
01:20 1018 30.06 847 25.01 19.3 66.7 53 9.7 49.4
01:25 1018 30.06 847 25.01 19.1 66.4 54 9.7 49.4
01:30 1018 30.06 847 25.01 19.2 66.5 54 9.9 49.8
01:35 1018 30.06 847 25.01 19.2 66.5 55 10 49.9
01:40 1018 30.06 847 25.01 19.2 66.5 55 10.1 50.2
01:45 1018 30.06 847 25.01 19.2 66.5 55 9.9 49.9
01:50 1018 30.06 847 25.01 19.2 66.6 57 10.6 51
01:55 1018 30.06 847 25.01 19 66.2 60 11.1 52
02:00 1018 30.06 847 25.01 18.4 65 62 11 51.8
02:05 1018 30.06 847 25.01 18.2 64.7 63 11 51.8
02:10 1018 30.06 847 25.01 18.1 64.6 63 11 51.7
02:15 1018 30.06 847 25.01 18.1 64.6 62 10.7 51.3
02:20 1018 30.06 847 25.01 18.2 64.8 64 11.3 52.3
02:25 1018 30.06 847 25.01 18.1 64.7 62 10.9 51.6
02:30 1018 30.06 847 25.01 18 64.4 63 10.9 51.6
02:35 1018 30.06 847 25.01 17.7 63.9 66 11.3 52.4
02:40 1018 30.06 847 25.01 17.4 63.4 68 11.4 52.6
02:45 1018 30.06 847 25.01 17.4 63.3 67 11.3 52.3
02:50 1017 30.03 847 25.01 17.4 63.3 68 11.4 52.5
02:55 1017 30.03 847 25.01 17.3 63.2 68 11.5 52.7
03:00 1017 30.03 847 25.01 17.3 63.1 68 11.4 52.5
03:05 1017 30.03 847 25.01 17.2 63 68 11.4 52.5
03:10 1017 30.03 847 25.01 17 62.6 72 11.9 53.4
03:15 1017 30.03 847 25.01 17 62.5 70 11.5 52.8
03:20 1017 30.03 847 25.01 17.4 63.3 64 10.7 51.3
03:25 1017 30.03 847 25.01 17.5 63.6 65 11 51.8
03:30 1017 30.03 847 25.01 17.3 63.1 66 11 51.9
03:35 1017 30.03 847 25.01 17 62.7 68 11.1 52
03:40 1017 30.03 847 25.01 16.8 62.2 69 11.1 52
03:45 1017 30.03 847 25.01 16.6 61.9 69 11 51.8
03:50 1017 30.03 847 25.01 16.5 61.7 69 10.9 51.6
03:55 1017 30.03 847 25.01 16.6 61.8 68 10.8 51.4
04:00 1017 30.03 847 25.01 16.7 62.1 68 10.8 51.5
04:05 1017 30.03 847 25.01 16.7 62 67 10.7 51.2
04:10 1017 30.03 847 25.01 16.6 62 69 10.9 51.6
04:15 1017 30.03 847 25.01 16.5 61.7 69 10.8 51.5
04:20 1017 30.03 847 25.01 16.7 62 67 10.7 51.2
04:25 1017 30.03 847 25.01 16.7 62 67 10.7 51.2
04:30 1017 30.03 847 25.01 16.6 61.9 68 10.8 51.5
04:35 1017 30.03 847 25.01 16.6 61.8 69 10.9 51.5
04:40 1017 30.03 847 25.01 16.6 61.8 69 10.9 51.7
04:45 1017 30.03 847 25.01 16.4 61.6 70 11 51.7
04:50 1017 30.03 847 25.01 16.4 61.5 69 10.8 51.4
04:55 1018 30.06 847 25.01 16.5 61.7 69 10.8 51.4
05:00 1017 30.03 847 25.01 16.5 61.8 69 11 51.7
05:05 1017 30.03 847 25.01 16.4 61.5 69 10.9 51.6
05:10 1017 30.03 847 25.01 16.3 61.3 70 10.9 51.5
05:15 1017 30.03 847 25.01 16.2 61.2 70 10.9 51.6
05:20 1017 30.03 847 25.01 16.2 61.1 71 11 51.8
05:25 1017 30.03 847 25.01 16.2 61.2 71 11.1 52
05:30 1018 30.06 847 25.01 16.5 61.6 69 10.9 51.6
05:35 1018 30.06 847 25.01 16.6 61.8 71 11.3 52.4
05:40 1018 30.06 847 25.01 16.1 61 72 11.1 52
05:45 1018 30.06 847 25.01 15.7 60.3 76 11.5 52.6
05:50 1018 30.06 847 25.01 15.6 60.1 73 10.8 51.5
05:55 1018 30.06 847 25.01 15.7 60.3 71 10.5 50.9
06:00 1018 30.06 847 25.01 15.7 60.2 71 10.6 51.1
06:05 1018 30.06 847 25.01 15.6 60 70 10.3 50.5
06:10 1018 30.06 847 25.01 15.4 59.8 70 10 49.9
06:15 1018 30.06 847 25.01 15.3 59.5 69 9.8 49.6
06:20 1018 30.06 847 25.01 15 59 72 10.1 50.1
06:25 1018 30.06 847 25.01 15 59 71 9.9 49.8
06:30 1018 30.06 847 25.01 14.7 58.4 70 9.3 48.7
06:35 1018 30.06 847 25.01 15.2 59.3 68 9.3 48.8
06:40 1018 30.06 847 25.01 15.5 59.9 66 9.2 48.5
06:45 1018 30.06 847 25.01 15.9 60.6 64 9.3 48.7
06:50 1018 30.06 847 25.01 16.1 61 66 9.8 49.6
06:55 1018 30.06 847 25.01 16.2 61.1 67 10.1 50.2
07:00 1018 30.06 847 25.01 16.3 61.3 66 10.1 50.2
07:05 1018 30.06 847 25.01 16.7 62.1 64 9.9 49.9
07:10 1018 30.06 847 25.01 17.2 62.9 62 9.9 49.9
07:15 1018 30.06 847 25.01 16.8 62.3 67 10.7 51.3
07:20 1018 30.06 847 25.01 16.6 61.9 66 10.4 50.7
07:25 1018 30.06 847 25.01 16.9 62.4 66 10.6 51.1
07:30 1018 30.06 847 25.01 17.3 63.2 65 10.8 51.5
07:35 1018 30.06 847 25.01 17.7 63.8 64 10.9 51.6
07:40 1018 30.06 847 25.01 17.9 64.2 64 11.1 51.9
07:45 1018 30.06 847 25.01 18.3 64.9 64 11.5 52.7
07:50 1018 30.06 847 25.01 18.4 65.1 64 11.5 52.8
07:55 1018 30.06 847 25.01 18.8 65.8 62 11.5 52.7
08:00 1018 30.06 847 25.01 19.2 66.6 60 11.5 52.6
08:05 1018 30.06 847 25.01 19.3 66.7 60 11.3 52.3
08:10 1018 30.06 847 25.01 19.2 66.5 61 11.5 52.8
08:15 1018 30.06 847 25.01 19.2 66.5 61 11.6 53
08:20 1018 30.06 847 25.01 19.6 67.2 60 11.6 52.9
08:25 1018 30.06 847 25.01 20 67.9 57 11.4 52.5
08:30 1018 30.06 847 25.01 20.7 69.3 54 11.3 52.4
08:35 1018 30.06 847 25.01 21.5 70.6 53 11.6 52.9
08:40 1018 30.06 847 25.01 20.7 69.3 56 11.9 53.4
08:45 1018 30.06 847 25.01 20 68 59 11.9 53.5
08:50 1018 30.06 847 25.01 20.1 68.2 56 11.2 52.1
08:55 1018 30.06 847 25.01 20.7 69.2 56 11.7 53
09:00 1018 30.06 847 25.01 21.3 70.4 51 11 51.9
09:05 1018 30.06 847 25.01 21.8 71.2 51 11.3 52.3
09:10 1018 30.06 847 25.01 21.7 71 49 10.6 51.1
09:15 1018 30.06 847 25.01 22.2 72 48 10.7 51.3
09:20 1018 30.06 847 25.01 22.4 72.4 45 10.2 50.4
09:25 1018 30.06 847 25.01 23.3 73.9 44 10.5 50.8
09:30 1018 30.06 847 25.01 23.3 73.9 44 10.4 50.7
09:35 1018 30.06 847 25.01 24.3 75.7 40 10.2 50.3
09:40 1018 30.06 847 25.01 25 76.9 39 10.3 50.6
09:45 1018 30.06 847 25.01 25.3 77.6 39 10.5 50.8
09:50 1018 30.06 847 25.01 25.4 77.7 39 10.7 51.2
09:55 1018 30.06 847 25.01 25.5 77.9 38 10.4 50.8
10:00 1017 30.03 847 25.01 25.3 77.6 39 10.6 51.1
10:05 1017 30.03 847 25.01 24.2 75.6 40 9.8 49.6
10:10 1017 30.03 846 24.98 24.4 76 41 10.4 50.7
10:15 1017 30.03 846 24.98 24.7 76.4 39 10 50
10:20 1017 30.03 847 25.01 24.4 76 40 10 50
10:25 1017 30.03 847 25.01 24.7 76.5 42 11 51.8
10:30 1017 30.03 846 24.98 24.2 75.5 41 10.3 50.6
10:35 1017 30.03 846 24.98 24.4 76 41 10.5 50.9
10:40 1017 30.03 846 24.98 24.6 76.2 41 10.7 51.2
10:45 1017 30.03 846 24.98 24.7 76.4 41 10.7 51.2
10:50 1017 30.03 846 24.98 24.9 76.8 39 10.2 50.3
10:55 1017 30.03 846 24.98 25 77 40 10.7 51.2
11:00 1017 30.03 846 24.98 24.8 76.7 42 11.2 52.2
11:05 1017 30.03 846 24.98 24.9 76.9 43 11.6 52.8
11:10 1017 30.03 846 24.98 24.8 76.7 45 12.3 54.1
11:15 1017 30.03 846 24.98 25 77 44 12 53.7
11:20 1017 30.03 846 24.98 24.8 76.7 46 12.6 54.7
11:25 1017 30.03 846 24.98 24.1 75.3 47 12.1 53.8
11:30 1017 30.03 846 24.98 24 75.1 46 11.7 53.1
11:35 1017 30.03 846 24.98 24.5 76.1 44 11.7 53
11:40 1017 30.03 846 24.98 24.9 76.7 42 11.3 52.3
11:45 1017 30.03 846 24.98 25.3 77.6 39 10.6 51.1
11:50 1017 30.03 846 24.98 26.4 79.5 37 10.9 51.6
11:55 1017 30.03 846 24.98 26.1 79 40 11.6 52.9
12:00 1017 30.03 846 24.98 26.7 80 35 10.1 50.2
12:05 1017 30.03 846 24.98 26 78.7 36 10 50
12:10 1017 30.03 846 24.98 27.2 80.9 32 9.5 49
12:15 1017 30.03 846 24.98 26.5 79.7 36 10.7 51.2
12:20 1017 30.03 846 24.98 26.4 79.5 38 11.2 52.2
12:25 1017 30.03 846 24.98 25.8 78.5 40 11.4 52.5
12:30 1017 30.03 846 24.98 25.7 78.2 43 12.3 54.1
12:35 1017 30.03 846 24.98 25.8 78.4 41 11.9 53.5
12:40 1017 30.03 846 24.98 25.5 77.9 41 11.6 52.8
12:45 1017 30.03 846 24.98 25.3 77.5 39 10.4 50.8
12:50 1017 30.03 846 24.98 26.3 79.3 38 11.1 52
12:55 1017 30.03 846 24.98 26.4 79.5 37 10.8 51.5
13:00 1016 30 846 24.98 26.9 80.5 37 11.2 52.2
13:05 1016 30 846 24.98 27.3 81.2 34 10.6 51
13:10 1016 30 846 24.98 27.7 81.8 33 10.4 50.8
13:15 1016 30 846 24.98 27.1 80.7 34 9.9 49.9
13:20 1016 30 845 24.95 27.2 81 33 9.7 49.4
13:25 1016 30 845 24.95 27.7 81.9 32 9.9 49.7
13:30 1016 30 845 24.95 28 82.4 31 9.7 49.4
13:35 1016 30 845 24.95 27.7 81.9 32 9.7 49.5
13:40 1016 30 845 24.95 27.8 82 33 10.2 50.4
13:45 1016 30 845 24.95 28.5 83.4 30 9.8 49.6
13:50 1016 30 845 24.95 28.1 82.5 31 9.8 49.6
13:55 1016 30 845 24.95 29 84.1 28 9.2 48.5
14:00 1016 30 845 24.95 29.4 84.8 29 9.9 49.8
14:05 1016 30 845 24.95 28.3 83 30 9.6 49.2
14:10 1015 29.97 845 24.95 28.1 82.6 30 9.4 48.9
14:15 1015 29.97 845 24.95 28.7 83.7 30 9.8 49.7
14:20 1015 29.97 845 24.95 29.1 84.4 29 9.7 49.5
14:25 1015 29.97 845 24.95 29.1 84.4 29 9.5 49
14:30 1015 29.97 844 24.92 28.3 83 32 10.2 50.3
14:35 1015 29.97 844 24.92 28.1 82.6 30 9.1 48.4
14:40 1015 29.97 844 24.92 28.1 82.6 31 9.7 49.5
14:45 1015 29.97 844 24.92 27.7 81.8 33 10 50.1
14:50 1015 29.97 844 24.92 27 80.7 32 9.2 48.6
14:55 1015 29.97 845 24.95 27.1 80.7 42 13.4 56.2
15:00 1016 30 845 24.95 22 71.6 70 16.3 61.3
15:05 1017 30.03 846 24.98 17.6 63.6 88 15.6 60
15:10 1017 30.03 846 24.98 14 57.3 90 12.4 54.3
15:15 1016 30 845 24.95 13.7 56.6 95 13 55.4
15:20 1016 30 845 24.95 14.5 58.1 92 13.3 56
15:25 1016 30 845 24.95 15.8 60.4 88 13.9 57
15:30 1016 30 845 24.95 17.1 62.8 88 15.1 59.1
15:35 1016 30 845 24.95 18.1 64.6 90 16.5 61.7
15:40 1016 30 845 24.95 18.8 65.8 83 15.9 60.6
15:45 1016 30 845 24.95 18.5 65.4 84 15.8 60.4
15:50 1016 30 845 24.95 18.6 65.5 82 15.5 59.9
15:55 1016 30 845 24.95 19.2 66.6 76 14.9 58.8
16:00 1015 29.97 845 24.95 20.1 68.1 75 15.5 59.9
16:05 1015 29.97 845 24.95 20.8 69.4 73 15.8 60.4
16:10 1015 29.97 844 24.92 21.4 70.5 65 14.6 58.4
16:15 1015 29.97 844 24.92 22 71.7 59 13.7 56.7
16:20 1015 29.97 844 24.92 22.5 72.6 59 14.2 57.6
16:25 1015 29.97 844 24.92 23 73.4 55 13.5 56.3
16:30 1015 29.97 844 24.92 23.4 74.1 55 13.9 57
16:35 1015 29.97 844 24.92 23.6 74.5 53 13.6 56.4
16:40 1015 29.97 844 24.92 23.8 74.8 53 13.7 56.7
16:45 1015 29.97 844 24.92 24.6 76.3 47 12.8 55.1
16:50 1014 29.94 844 24.92 24.8 76.6 51 14 57.2
16:55 1014 29.94 844 24.92 24.8 76.6 52 14.5 58
17:00 1014 29.94 844 24.92 24.5 76.1 52 14.1 57.5
17:05 1014 29.94 844 24.92 24.2 75.6 56 15.1 59.2
17:10 1014 29.94 843 24.89 24.2 75.6 57 15.4 59.8
17:15 1014 29.94 843 24.89 24.2 75.5 56 15 59.1
17:20 1014 29.94 843 24.89 24 75.1 57 15.1 59.1
17:25 1014 29.94 843 24.89 23.9 75 56 14.8 58.7
17:30 1014 29.94 844 24.92 23.9 74.9 57 15 59.1
17:35 1014 29.94 843 24.89 23.8 74.8 58 15.3 59.5
17:40 1014 29.94 843 24.89 23.8 74.8 60 15.7 60.3
17:45 1014 29.94 843 24.89 23.5 74.3 62 16 60.7
17:50 1014 29.94 843 24.89 23.4 74.2 62 15.9 60.6
17:55 1014 29.94 843 24.89 23.5 74.3 62 15.9 60.6
18:00 1013 29.91 843 24.89 23.3 74 64 16.2 61.2
18:05 1014 29.94 843 24.89 23.1 73.6 64 16.1 61
18:10 1015 29.97 844 24.92 23.2 73.7 60 15.1 59.2
18:15 1016 30 845 24.95 20.7 69.2 78 16.8 62.3
18:20 1017 30.03 846 24.98 15.3 59.5 91 13.9 56.9
18:25 1018 30.06 847 25.01 12.5 54.4 96 11.8 53.2
18:30 1019 30.09 848 25.04 11.9 53.5 97 11.5 52.8
18:35 1019 30.09 848 25.04 12.1 53.7 98 11.7 53.1
18:40 1019 30.09 848 25.04 12.3 54.1 98 12 53.6
18:45 1019 30.09 848 25.04 12.4 54.2 96 11.7 53.1
18:50 1019 30.09 848 25.04 12.2 54 98 11.8 53.3
18:55 1019 30.09 848 25.04 12.3 54.1 97 11.8 53.2
19:00 1019 30.09 848 25.04 12.2 54 97 11.7 53
19:05 1019 30.09 848 25.04 12.3 54.1 97 11.7 53.1
19:10 1020 30.12 849 25.07 12.5 54.5 94 11.6 52.9
19:15 1020 30.12 849 25.07 12.8 55.1 94 11.9 53.4
19:20 1020 30.12 849 25.07 13.2 55.7 91 11.8 53.2
19:25 1020 30.12 850 25.1 13.3 56 95 12.5 54.5
19:30 1020 30.12 849 25.07 13.3 56 95 12.6 54.7
19:35 1020 30.12 849 25.07 13.4 56.1 97 12.9 55.3
19:40 1020 30.12 849 25.07 13.7 56.6 92 12.4 54.3
19:45 1020 30.12 850 25.1 13.6 56.4 94 12.6 54.6
19:50 1020 30.12 849 25.07 13.6 56.4 95 12.8 55
19:55 1020 30.12 849 25.07 13.7 56.7 91 12.3 54.1
20:00 1020 30.12 849 25.07 13.9 57 93 12.8 55.1
20:05 1020 30.12 849 25.07 13.7 56.7 93 12.7 54.8
20:10 1019 30.09 849 25.07 13.6 56.5 93 12.5 54.5
20:15 1019 30.09 848 25.04 13.7 56.6 93 12.6 54.7
20:20 1019 30.09 848 25.04 13.8 56.8 89 12 53.6
20:25 1019 30.09 848 25.04 14.1 57.4 89 12.4 54.3
20:30 1019 30.09 848 25.04 14.2 57.6 90 12.6 54.7
20:35 1019 30.09 848 25.04 14.2 57.5 91 12.7 54.9
20:40 1019 30.09 848 25.04 14.2 57.5 90 12.6 54.6
20:45 1019 30.09 848 25.04 14.3 57.7 89 12.4 54.4
20:50 1019 30.09 848 25.04 14.4 57.9 88 12.4 54.4
20:55 1019 30.09 848 25.04 14.4 58 89 12.7 54.8
21:00 1019 30.09 848 25.04 14.4 57.8 89 12.5 54.6
21:05 1019 30.09 848 25.04 14.3 57.8 90 12.7 54.9
21:10 1019 30.09 848 25.04 14.3 57.8 90 12.7 54.8
21:15 1018 30.06 848 25.04 14.3 57.7 93 13.1 55.7
21:20 1018 30.06 847 25.01 14.1 57.4 92 12.8 55.1
21:25 1018 30.06 848 25.04 14.2 57.5 91 12.7 54.8
21:30 1018 30.06 847 25.01 14.2 57.6 89 12.5 54.5
21:35 1018 30.06 848 25.04 14.3 57.7 90 12.8 55
21:40 1018 30.06 847 25.01 14.3 57.7 89 12.5 54.5
21:45 1018 30.06 848 25.04 14.4 57.9 88 12.5 54.5
21:50 1018 30.06 848 25.04 14.4 57.9 88 12.4 54.4
21:55 1019 30.09 848 25.04 14.4 57.9 88 12.4 54.4
22:00 1018 30.06 848 25.04 14.4 58 87 12.4 54.3
22:05 1019 30.09 848 25.04 14.5 58.2 86 12.2 53.9
22:10 1019 30.09 848 25.04 14.7 58.5 85 12.2 54
22:15 1019 30.09 848 25.04 14.6 58.3 86 12.3 54.1
22:20 1019 30.09 848 25.04 14.5 58 87 12.4 54.4
22:25 1018 30.06 848 25.04 14.4 57.9 86 12.2 53.9
22:30 1018 30.06 848 25.04 14.3 57.8 87 12.2 54
22:35 1018 30.06 848 25.04 14.4 57.8 85 11.9 53.4
22:40 1018 30.06 848 25.04 14.5 58.1 86 12.2 54
22:45 1018 30.06 848 25.04 14.3 57.8 88 12.4 54.3
22:50 1018 30.06 848 25.04 14 57.2 89 12.2 53.9
22:55 1019 30.09 848 25.04 13.9 57.1 88 12.1 53.7
23:00 1019 30.09 848 25.04 13.9 57.1 89 12.1 53.9
23:05 1019 30.09 848 25.04 13.9 57 89 12.2 53.9
23:10 1019 30.09 848 25.04 13.9 57 89 12.1 53.8
23:15 1019 30.09 848 25.04 13.8 56.9 89 12.1 53.8
23:20 1019 30.09 848 25.04 13.6 56.4 91 12.1 53.8
23:25 1019 30.09 848 25.04 13.4 56 92 12 53.7
23:30 1019 30.09 848 25.04 13.4 56.2 91 12 53.7
23:35 1019 30.09 848 25.04 13.3 56 91 11.9 53.4
23:40 1019 30.09 848 25.04 13.5 56.2 90 11.9 53.4
23:45 1019 30.09 848 25.04 13.4 56.1 91 11.9 53.5
23:50 1019 30.09 848 25.04 13.3 56 92 12 53.6
23:55 1019 30.09 848 25.04 13.1 55.7 92 11.9 53.4
24:00 1019 30.09 848 25.04 13.1 55.5 92 11.8 53.3